createdAt,value
2023-04-22T00:02:10.255Z,7.60
2023-04-22T00:04:38.696Z,7.58
2023-04-22T00:07:07.291Z,7.56
2023-04-22T00:09:36.358Z,7.57
2023-04-22T00:12:04.020Z,7.55
2023-04-22T00:14:32.288Z,7.52
2023-04-22T00:17:00.757Z,7.47
2023-04-22T00:19:29.422Z,7.44
2023-04-22T00:21:57.467Z,7.43
2023-04-22T00:24:26.043Z,7.40
2023-04-22T00:26:54.490Z,7.35
2023-04-22T00:29:22.838Z,7.31
2023-04-22T00:31:51.603Z,7.33
2023-04-22T00:34:19.841Z,7.38
2023-04-22T00:36:48.250Z,7.39
2023-04-22T00:39:16.589Z,7.34
2023-04-22T00:41:45.059Z,7.32
2023-04-22T00:44:13.511Z,7.30
2023-04-22T00:46:41.870Z,7.30
2023-04-22T00:49:10.192Z,7.29
2023-04-22T00:51:38.686Z,7.32
2023-04-22T00:54:07.033Z,7.28
2023-04-22T00:56:39.792Z,7.22
2023-04-22T00:59:10.978Z,7.24
2023-04-22T01:01:40.055Z,7.30
2023-04-22T01:04:12.713Z,7.25
2023-04-22T01:06:44.738Z,7.20
2023-04-22T01:09:14.247Z,7.14
2023-04-22T01:11:46.483Z,7.10
2023-04-22T01:14:14.732Z,7.11
2023-04-22T01:16:46.547Z,7.06
2023-04-22T01:19:16.649Z,7.04
2023-04-22T01:21:50.639Z,6.97
2023-04-22T01:24:20.638Z,6.90
2023-04-22T01:26:50.615Z,6.89
2023-04-22T01:29:18.381Z,6.85
2023-04-22T01:31:48.805Z,6.83
2023-04-22T01:34:18.724Z,6.78
2023-04-22T01:36:49.587Z,6.72
2023-04-22T01:39:19.008Z,6.70
2023-04-22T01:41:49.779Z,6.66
2023-04-22T01:44:19.985Z,6.65
2023-04-22T01:46:49.641Z,6.62
2023-04-22T01:49:19.360Z,6.57
2023-04-22T01:51:49.249Z,6.53
2023-04-22T01:54:19.199Z,6.57
2023-04-22T01:56:55.879Z,6.56
2023-04-22T01:59:24.999Z,6.61
2023-04-22T02:01:54.642Z,6.74
2023-04-22T02:04:24.565Z,6.68
2023-04-22T02:06:54.323Z,6.73
2023-04-22T02:09:22.807Z,6.79
2023-04-22T02:11:51.272Z,6.86
2023-04-22T02:14:19.598Z,6.81
2023-04-22T02:16:48.054Z,6.88
2023-04-22T02:19:16.441Z,6.82
2023-04-22T02:21:44.960Z,6.75
2023-04-22T02:24:13.327Z,6.66
2023-04-22T02:26:41.708Z,6.62
2023-04-22T02:29:10.124Z,6.60
2023-04-22T02:31:38.808Z,6.60
2023-04-22T02:34:06.987Z,6.54
2023-04-22T02:36:35.506Z,6.48
2023-04-22T02:39:05.700Z,6.50
2023-04-22T02:41:35.404Z,6.47
2023-04-22T02:44:03.679Z,6.43
2023-04-22T02:46:32.135Z,6.37
2023-04-22T02:49:00.512Z,6.30
2023-04-22T02:51:29.175Z,6.25
2023-04-22T02:53:57.386Z,6.23
2023-04-22T02:56:26.855Z,6.23
2023-04-22T02:58:54.233Z,6.24
2023-04-22T03:01:22.792Z,6.27
2023-04-22T03:03:51.248Z,6.26
2023-04-22T03:06:19.719Z,6.23
2023-04-22T03:08:48.030Z,6.19
2023-04-22T03:11:16.523Z,6.13
2023-04-22T03:13:44.819Z,6.06
2023-04-22T03:16:13.445Z,6.01
2023-04-22T03:18:41.750Z,5.99
2023-04-22T03:21:10.078Z,5.97
2023-04-22T03:23:38.464Z,5.95
2023-04-22T03:26:07.301Z,5.92
2023-04-22T03:28:35.384Z,5.92
2023-04-22T03:31:03.773Z,5.89
2023-04-22T03:33:32.276Z,5.89
2023-04-22T03:36:00.726Z,5.90
2023-04-22T03:38:28.991Z,5.88
2023-04-22T03:40:57.497Z,5.80
2023-04-22T03:43:25.912Z,5.75
2023-04-22T03:45:54.354Z,5.76
2023-04-22T03:48:22.762Z,5.68
2023-04-22T03:50:51.199Z,5.62
2023-04-22T03:53:19.596Z,5.59
2023-04-22T03:55:47.991Z,5.55
2023-04-22T03:58:16.410Z,5.51
2023-04-22T04:00:44.860Z,5.49
2023-04-22T04:03:13.332Z,5.47
2023-04-22T04:05:42.057Z,5.45
2023-04-22T04:08:10.274Z,5.43
2023-04-22T04:10:38.764Z,5.51
2023-04-22T04:13:07.150Z,5.54
2023-04-22T04:15:37.401Z,5.51
2023-04-22T04:18:07.150Z,5.54
2023-04-22T04:20:35.482Z,5.60
2023-04-22T04:23:03.746Z,5.69
2023-04-22T04:25:38.992Z,5.69
2023-04-22T04:28:11.380Z,5.79
2023-04-22T04:30:41.862Z,5.95
2023-04-22T04:33:12.747Z,5.97
2023-04-22T04:35:41.802Z,6.01
2023-04-22T04:38:13.020Z,6.14
2023-04-22T04:40:43.757Z,6.22
2023-04-22T04:43:14.553Z,6.23
2023-04-22T04:45:48.323Z,6.44
2023-04-22T04:48:16.979Z,6.45
2023-04-22T04:50:47.308Z,6.58
2023-04-22T04:53:17.263Z,6.64
2023-04-22T04:55:48.004Z,6.76
2023-04-22T04:58:17.924Z,6.76
2023-04-22T05:00:47.824Z,7.01
2023-04-22T05:03:17.876Z,7.15
2023-04-22T05:05:49.189Z,7.16
2023-04-22T05:08:18.491Z,7.41
2023-04-22T05:10:48.387Z,7.37
2023-04-22T05:13:18.261Z,7.43
2023-04-22T05:15:48.078Z,7.43
2023-04-22T05:18:18.559Z,7.46
2023-04-22T05:20:47.870Z,7.71
2023-04-22T05:23:17.651Z,7.71
2023-04-22T05:25:47.579Z,7.71
2023-04-22T05:28:17.362Z,8.02
2023-04-22T05:30:47.283Z,8.21
2023-04-22T05:33:17.238Z,8.23
2023-04-22T05:35:47.408Z,8.28
2023-04-22T05:38:17.220Z,8.50
2023-04-22T05:40:46.929Z,8.67
2023-04-22T05:43:16.820Z,8.61
2023-04-22T05:45:47.313Z,8.79
2023-04-22T05:48:16.672Z,8.95
2023-04-22T05:50:46.430Z,8.97
2023-04-22T05:53:16.369Z,9.09
2023-04-22T05:55:46.266Z,9.27
2023-04-22T05:58:15.984Z,9.24
2023-04-22T06:00:44.295Z,9.46
2023-04-22T06:03:13.008Z,9.74
2023-04-22T06:05:41.410Z,9.76
2023-04-22T06:08:09.733Z,9.84
2023-04-22T06:10:37.976Z,10.15
2023-04-22T06:13:06.616Z,10.52
2023-04-22T06:15:36.331Z,10.58
2023-04-22T06:18:06.456Z,10.96
2023-04-22T06:20:36.052Z,11.40
2023-04-22T06:23:06.142Z,11.45
2023-04-22T06:25:35.087Z,11.71
2023-04-22T06:28:05.346Z,11.46
2023-04-22T06:30:35.591Z,11.76
2023-04-22T06:33:05.730Z,12.17
2023-04-22T06:35:36.249Z,12.12
2023-04-22T06:38:06.183Z,12.38
2023-04-22T06:40:36.346Z,12.90
2023-04-22T06:43:06.494Z,13.01
2023-04-22T06:45:36.952Z,13.44
2023-04-22T06:48:06.846Z,13.76
2023-04-22T06:50:37.081Z,13.86
2023-04-22T06:53:07.248Z,14.17
2023-04-22T06:55:37.635Z,14.21
2023-04-22T06:58:07.642Z,14.22
2023-04-22T07:00:37.796Z,14.31
2023-04-22T07:03:08.043Z,14.68
2023-04-22T07:05:39.745Z,15.05
2023-04-22T07:08:08.417Z,14.97
2023-04-22T07:10:38.537Z,15.43
2023-04-22T07:13:08.788Z,15.84
2023-04-22T07:15:39.025Z,16.02
2023-04-22T07:18:09.269Z,16.36
2023-04-22T07:20:39.401Z,16.71
2023-04-22T07:23:09.524Z,16.66
2023-04-22T07:25:39.698Z,16.96
2023-04-22T07:28:09.908Z,17.17
2023-04-22T07:30:39.977Z,17.12
2023-04-22T07:33:10.273Z,16.94
2023-04-22T07:35:40.864Z,17.13
2023-04-22T07:38:12.126Z,17.37
2023-04-22T07:40:40.843Z,17.36
2023-04-22T07:43:11.092Z,17.40
2023-04-22T07:45:41.054Z,17.49
2023-04-22T07:48:11.261Z,17.85
2023-04-22T07:50:41.421Z,17.66
2023-04-22T07:53:10.965Z,18.18
2023-04-22T07:55:38.345Z,18.05
2023-04-22T07:58:06.937Z,17.93
2023-04-22T08:00:36.023Z,17.84
2023-04-22T08:03:05.066Z,17.53
2023-04-22T08:05:35.081Z,18.57
2023-04-22T08:08:03.372Z,18.82
2023-04-22T08:10:32.017Z,19.17
2023-04-22T08:13:00.600Z,18.63
2023-04-22T08:15:28.775Z,19.25
2023-04-22T08:17:57.194Z,19.16
2023-04-22T08:20:25.999Z,19.06
2023-04-22T08:22:58.257Z,19.16
2023-04-22T08:25:29.071Z,19.09
2023-04-22T08:27:59.244Z,19.56
2023-04-22T08:30:29.627Z,19.86
2023-04-22T08:32:59.807Z,20.07
2023-04-22T08:35:36.822Z,20.02
2023-04-22T08:38:07.157Z,19.64
2023-04-22T08:40:42.526Z,19.88
2023-04-22T08:43:13.343Z,20.50
2023-04-22T08:45:45.356Z,20.42
2023-04-22T08:48:16.449Z,20.43
2023-04-22T08:50:49.474Z,20.80
2023-04-22T08:53:24.454Z,20.56
2023-04-22T08:55:57.362Z,20.76
2023-04-22T08:58:30.276Z,20.71
2023-04-22T09:01:03.278Z,21.04
2023-04-22T09:03:37.504Z,21.13
2023-04-22T09:06:12.337Z,21.44
2023-04-22T09:08:43.492Z,21.57
2023-04-22T09:11:11.529Z,21.52
2023-04-22T09:13:39.345Z,21.09
2023-04-22T09:16:07.862Z,20.78
2023-04-22T09:18:46.089Z,21.77
2023-04-22T09:21:16.701Z,22.24
2023-04-22T09:23:54.864Z,22.18
2023-04-22T09:26:27.034Z,22.67
2023-04-22T09:28:59.478Z,22.37
2023-04-22T09:31:29.852Z,22.62
2023-04-22T09:34:01.616Z,22.54
2023-04-22T09:36:40.722Z,22.05
2023-04-22T09:39:11.468Z,22.83
2023-04-22T09:41:42.070Z,23.11
2023-04-22T09:44:20.698Z,23.10
2023-04-22T09:46:51.458Z,23.26
2023-04-22T09:49:21.861Z,22.56
2023-04-22T09:51:58.314Z,22.84
2023-04-22T09:54:28.385Z,23.07
2023-04-22T09:56:58.837Z,23.30
2023-04-22T09:59:30.725Z,23.05
2023-04-22T10:02:07.317Z,22.90
2023-04-22T10:04:38.678Z,23.23
2023-04-22T10:07:09.044Z,23.07
2023-04-22T10:09:40.159Z,23.01
2023-04-22T10:12:12.251Z,22.62
2023-04-22T10:14:42.394Z,23.36
2023-04-22T10:17:15.178Z,23.77
2023-04-22T10:19:49.338Z,23.74
2023-04-22T10:22:19.871Z,23.60
2023-04-22T10:24:55.427Z,23.67
2023-04-22T10:27:25.683Z,23.41
2023-04-22T10:29:57.776Z,23.61
2023-04-22T10:32:28.407Z,23.80
2023-04-22T10:35:13.833Z,23.13
2023-04-22T10:37:46.433Z,23.20
2023-04-22T10:40:19.107Z,23.57
2023-04-22T10:42:55.989Z,23.73
2023-04-22T10:45:26.751Z,24.01
2023-04-22T10:48:04.568Z,23.71
2023-04-22T10:50:34.912Z,23.98
2023-04-22T10:53:37.864Z,24.19
2023-04-22T10:56:21.045Z,23.71
2023-04-22T10:58:51.876Z,23.52
2023-04-22T11:01:21.935Z,22.95
2023-04-22T11:03:52.348Z,23.17
2023-04-22T11:06:25.026Z,23.35
2023-04-22T11:09:13.120Z,23.40
2023-04-22T11:11:40.803Z,23.51
2023-04-22T11:14:11.514Z,23.66
2023-04-22T11:16:47.843Z,23.64
2023-04-22T11:19:18.082Z,23.27
2023-04-22T11:21:51.125Z,23.27
2023-04-22T11:24:21.121Z,23.70
2023-04-22T11:26:55.436Z,23.41
2023-04-22T11:29:24.342Z,23.49
2023-04-22T11:31:54.413Z,23.48
2023-04-22T11:34:24.208Z,23.61
2023-04-22T11:36:54.368Z,23.46
2023-04-22T11:39:35.316Z,23.82
2023-04-22T11:42:09.426Z,23.80
2023-04-22T11:44:44.852Z,23.49
2023-04-22T11:47:15.204Z,23.09
2023-04-22T11:50:07.278Z,22.99
2023-04-22T11:52:57.163Z,23.24
2023-04-22T11:55:39.739Z,22.70
2023-04-22T11:58:28.381Z,22.85
2023-04-22T12:01:00.137Z,22.68
2023-04-22T12:03:34.188Z,22.74
2023-04-22T12:06:05.959Z,23.02
2023-04-22T12:08:42.612Z,22.86
2023-04-22T12:11:13.971Z,22.55
2023-04-22T12:13:48.093Z,22.69
2023-04-22T12:16:20.463Z,23.11
2023-04-22T12:18:54.808Z,23.40
2023-04-22T12:21:30.213Z,23.74
2023-04-22T12:24:12.799Z,23.57
2023-04-22T12:26:43.043Z,23.50
2023-04-22T12:29:13.701Z,23.64
2023-04-22T12:31:43.829Z,23.19
2023-04-22T12:34:13.968Z,23.62
2023-04-22T12:36:44.165Z,23.83
2023-04-22T12:39:15.404Z,23.48
2023-04-22T12:41:46.154Z,23.64
2023-04-22T12:44:16.456Z,23.87
2023-04-22T12:46:46.827Z,23.95
2023-04-22T12:49:17.304Z,23.78
2023-04-22T12:51:47.406Z,23.50
2023-04-22T12:54:18.868Z,23.67
2023-04-22T12:56:49.469Z,23.84
2023-04-22T12:59:20.239Z,23.80
2023-04-22T13:01:50.488Z,23.87
2023-04-22T13:04:21.521Z,23.79
2023-04-22T13:06:56.499Z,23.84
2023-04-22T13:09:27.169Z,23.95
2023-04-22T13:11:58.547Z,23.73
2023-04-22T13:14:28.875Z,23.76
2023-04-22T13:16:59.095Z,24.13
2023-04-22T13:19:29.910Z,23.87
2023-04-22T13:21:57.706Z,24.03
2023-04-22T13:24:26.672Z,23.91
2023-04-22T13:26:54.685Z,24.34
2023-04-22T13:29:23.808Z,24.46
2023-04-22T13:31:51.562Z,24.51
2023-04-22T13:34:20.051Z,24.49
2023-04-22T13:36:48.503Z,24.35
2023-04-22T13:39:18.011Z,24.61
2023-04-22T13:41:46.150Z,24.68
2023-04-22T13:44:14.390Z,24.51
2023-04-22T13:46:43.810Z,24.72
2023-04-22T13:49:13.559Z,25.10
2023-04-22T13:51:43.722Z,24.27
2023-04-22T13:54:13.867Z,24.67
2023-04-22T13:56:44.035Z,24.87
2023-04-22T13:59:14.162Z,25.24
2023-04-22T14:01:44.486Z,25.19
2023-04-22T14:04:14.631Z,25.17
2023-04-22T14:06:44.979Z,24.93
2023-04-22T14:09:15.175Z,25.08
2023-04-22T14:11:45.417Z,25.22
2023-04-22T14:14:15.535Z,25.03
2023-04-22T14:16:46.069Z,25.39
2023-04-22T14:19:16.681Z,25.41
2023-04-22T14:21:47.392Z,25.41
2023-04-22T14:24:19.526Z,25.29
2023-04-22T14:26:52.130Z,24.89
2023-04-22T14:29:22.545Z,25.55
2023-04-22T14:31:52.729Z,25.85
2023-04-22T14:34:23.204Z,25.59
2023-04-22T14:36:53.522Z,25.96
2023-04-22T14:39:23.714Z,26.04
2023-04-22T14:41:53.909Z,26.00
2023-04-22T14:44:24.317Z,25.96
2023-04-22T14:46:54.512Z,26.59
2023-04-22T14:49:24.638Z,26.75
2023-04-22T14:51:54.975Z,26.98
2023-04-22T14:54:25.147Z,26.83
2023-04-22T14:56:56.185Z,26.21
2023-04-22T14:59:26.610Z,26.47
2023-04-22T15:01:57.360Z,26.52
2023-04-22T15:04:27.932Z,26.99
2023-04-22T15:06:58.302Z,26.78
2023-04-22T15:09:28.704Z,26.50
2023-04-22T15:11:59.785Z,26.68
2023-04-22T15:14:30.030Z,26.82
2023-04-22T15:17:00.685Z,27.04
2023-04-22T15:19:31.065Z,27.10
2023-04-22T15:22:01.845Z,27.09
2023-04-22T15:24:29.873Z,27.15
2023-04-22T15:26:58.885Z,27.04
2023-04-22T15:29:28.689Z,27.48
2023-04-22T15:31:58.188Z,27.75
2023-04-22T15:34:26.503Z,28.06
2023-04-22T15:36:54.813Z,27.85
2023-04-22T15:39:24.983Z,27.55
2023-04-22T15:41:55.207Z,27.39
2023-04-22T15:44:25.528Z,27.14
2023-04-22T15:46:59.639Z,26.37
2023-04-22T15:49:29.892Z,26.49
2023-04-22T15:52:01.260Z,26.74
2023-04-22T15:54:33.073Z,26.99
2023-04-22T15:57:03.730Z,26.67
2023-04-22T15:59:33.869Z,25.92
2023-04-22T16:02:04.487Z,25.22
2023-04-22T16:04:34.996Z,24.44
2023-04-22T16:07:06.171Z,23.97
2023-04-22T16:09:36.515Z,23.49
2023-04-22T16:12:11.171Z,23.11
2023-04-22T16:14:41.894Z,22.66
2023-04-22T16:17:12.616Z,22.39
2023-04-22T16:19:43.514Z,22.36
2023-04-22T16:22:13.720Z,21.93
2023-04-22T16:24:44.321Z,21.78
2023-04-22T16:27:17.132Z,21.69
2023-04-22T16:29:47.584Z,21.26
2023-04-22T16:32:17.920Z,21.24
2023-04-22T16:34:48.114Z,21.46
2023-04-22T16:37:16.742Z,21.41
2023-04-22T16:39:46.436Z,21.11
2023-04-22T16:42:16.547Z,21.06
2023-04-22T16:44:45.030Z,20.97
2023-04-22T16:47:13.455Z,20.69
2023-04-22T16:49:41.790Z,20.56
2023-04-22T16:52:10.420Z,20.51
2023-04-22T16:54:38.727Z,20.48
2023-04-22T16:57:08.394Z,20.56
2023-04-22T16:59:39.480Z,20.37
2023-04-22T17:02:10.229Z,20.31
2023-04-22T17:04:40.592Z,20.17
2023-04-22T17:07:11.132Z,19.94
2023-04-22T17:09:41.713Z,19.70
2023-04-22T17:12:18.793Z,19.46
2023-04-22T17:14:49.078Z,19.36
2023-04-22T17:17:19.198Z,19.42
2023-04-22T17:19:49.410Z,19.27
2023-04-22T17:22:19.612Z,19.12
2023-04-22T17:24:49.719Z,18.98
2023-04-22T17:27:19.872Z,18.79
2023-04-22T17:29:50.031Z,18.61
2023-04-22T17:32:20.138Z,18.49
2023-04-22T17:34:50.482Z,18.33
2023-04-22T17:37:20.643Z,18.19
2023-04-22T17:39:50.850Z,17.99
2023-04-22T17:42:21.534Z,17.76
2023-04-22T17:44:51.699Z,17.58
2023-04-22T17:47:22.134Z,17.41
2023-04-22T17:49:52.423Z,17.20
2023-04-22T17:52:23.409Z,17.05
2023-04-22T17:54:53.717Z,16.85
2023-04-22T17:57:23.900Z,16.66
2023-04-22T18:04:28.327Z,16.14
2023-04-22T18:06:57.158Z,15.97
2023-04-22T18:09:27.501Z,15.82
2023-04-22T18:11:58.845Z,15.66
2023-04-22T18:14:28.217Z,15.50
2023-04-22T18:16:58.468Z,15.31
2023-04-22T18:19:28.777Z,15.19
2023-04-22T18:22:00.272Z,15.08
2023-04-22T18:24:29.335Z,14.96
2023-04-22T18:26:59.538Z,14.83
2023-04-22T18:29:29.663Z,14.72
2023-04-22T18:32:00.204Z,14.60
2023-04-22T18:34:31.126Z,14.50
2023-04-22T18:37:00.948Z,14.38
2023-04-22T18:39:31.343Z,14.29
2023-04-22T18:42:02.416Z,14.18
2023-04-22T18:44:32.315Z,14.09
2023-04-22T18:47:02.507Z,13.96
2023-04-22T18:49:33.980Z,13.85
2023-04-22T18:52:03.358Z,13.76
2023-04-22T18:54:33.572Z,13.67
2023-04-22T18:57:03.768Z,13.58
2023-04-22T18:59:34.456Z,13.53
2023-04-22T19:02:05.996Z,13.47
2023-04-22T19:04:34.465Z,13.39
2023-04-22T19:07:04.771Z,13.31
2023-04-22T19:09:35.020Z,13.21
2023-04-22T19:12:15.166Z,13.11
2023-04-22T19:14:44.253Z,13.00
2023-04-22T19:17:12.391Z,12.93
2023-04-22T19:19:41.110Z,12.86
2023-04-22T19:22:09.808Z,12.78
2023-04-22T19:24:39.734Z,12.70
2023-04-22T19:27:12.616Z,12.65
2023-04-22T19:29:43.890Z,12.57
2023-04-22T19:32:13.711Z,12.50
2023-04-22T19:34:43.808Z,12.42
2023-04-22T19:37:14.107Z,12.38
2023-04-22T19:39:44.613Z,12.32
2023-04-22T19:42:20.536Z,12.28
2023-04-22T19:44:48.710Z,12.24
2023-04-22T19:47:19.229Z,12.18
2023-04-22T19:49:49.754Z,12.14
2023-04-22T19:52:23.461Z,12.12
2023-04-22T19:54:56.307Z,12.07
2023-04-22T19:57:27.324Z,12.02
2023-04-22T19:59:57.518Z,12.00
2023-04-22T20:02:28.703Z,11.98
2023-04-22T20:04:59.405Z,11.96
2023-04-22T20:07:32.959Z,11.93
2023-04-22T20:10:07.516Z,11.90
2023-04-22T20:12:38.138Z,11.85
2023-04-22T20:15:10.711Z,11.80
2023-04-22T20:17:41.467Z,11.78
2023-04-22T20:20:13.553Z,11.75
2023-04-22T20:22:46.458Z,11.72
2023-04-22T20:25:17.574Z,11.68
2023-04-22T20:27:48.888Z,11.64
2023-04-22T20:30:19.294Z,11.61
2023-04-22T20:32:49.792Z,11.58
2023-04-22T20:35:20.754Z,11.55
2023-04-22T20:37:58.321Z,11.55
2023-04-22T20:40:29.925Z,11.52
2023-04-22T20:43:00.211Z,11.56
2023-04-22T20:45:30.520Z,11.53
2023-04-22T20:48:00.790Z,11.54
2023-04-22T20:50:33.621Z,11.55
2023-04-22T20:53:04.266Z,11.55
2023-04-22T20:55:36.856Z,11.53
2023-04-22T20:58:07.462Z,11.51
2023-04-22T21:00:37.799Z,11.50
2023-04-22T21:03:10.155Z,11.52
2023-04-22T21:05:45.201Z,11.55
2023-04-22T21:08:23.366Z,11.59
2023-04-22T21:10:57.081Z,11.63
2023-04-22T21:13:25.847Z,11.67
2023-04-22T21:16:02.534Z,11.71
2023-04-22T21:18:35.047Z,11.75
2023-04-22T21:21:08.309Z,11.79
2023-04-22T21:23:42.349Z,11.83
2023-04-22T21:26:15.766Z,11.87
2023-04-22T21:28:46.500Z,11.92
2023-04-22T21:31:17.066Z,11.94
2023-04-22T21:33:47.180Z,11.93
2023-04-22T21:36:17.396Z,11.98
2023-04-22T21:38:50.264Z,12.05
2023-04-22T21:41:20.525Z,12.11
2023-04-22T21:43:50.726Z,12.19
2023-04-22T21:46:22.260Z,12.39
2023-04-22T21:48:52.388Z,12.39
2023-04-22T21:51:21.634Z,12.41
2023-04-22T21:53:50.024Z,12.50
2023-04-22T21:56:18.056Z,12.52
2023-04-22T21:58:46.005Z,12.51
2023-04-22T22:01:14.530Z,12.52
2023-04-22T22:03:42.949Z,12.58
2023-04-22T22:06:11.310Z,12.66
2023-04-22T22:08:40.897Z,12.72
2023-04-22T22:11:12.434Z,12.91
2023-04-22T22:13:49.431Z,12.83
2023-04-22T22:16:19.659Z,12.70
2023-04-22T22:18:50.248Z,12.73
2023-04-22T22:21:20.419Z,12.71
2023-04-22T22:23:50.674Z,12.68
2023-04-22T22:26:20.872Z,12.63
2023-04-22T22:28:51.058Z,12.78
2023-04-22T22:31:21.602Z,12.91
2023-04-22T22:33:51.787Z,12.75
2023-04-22T22:36:21.997Z,12.66
2023-04-22T22:38:52.656Z,12.61
2023-04-22T22:41:22.939Z,12.55
2023-04-22T22:43:53.184Z,12.57
2023-04-22T22:46:23.756Z,12.58
2023-04-22T22:48:54.757Z,12.69
2023-04-22T22:51:25.118Z,12.76
2023-04-22T22:53:55.447Z,12.68
2023-04-22T22:56:26.005Z,12.71
2023-04-22T22:58:56.216Z,12.83
2023-04-22T23:01:26.442Z,12.67
2023-04-22T23:03:56.788Z,12.67
2023-04-22T23:06:27.473Z,12.56
2023-04-22T23:08:58.018Z,12.49
2023-04-22T23:11:28.154Z,12.60
2023-04-22T23:13:58.409Z,12.54
2023-04-22T23:16:28.677Z,12.46
2023-04-22T23:19:00.265Z,12.45
2023-04-22T23:21:32.680Z,12.51
2023-04-22T23:24:03.925Z,12.38
2023-04-22T23:26:35.020Z,12.30
2023-04-22T23:29:06.932Z,12.20
2023-04-22T23:31:40.442Z,12.11
2023-04-22T23:34:11.504Z,12.10
2023-04-22T23:36:44.619Z,12.06
2023-04-22T23:39:13.316Z,12.07
2023-04-22T23:41:41.530Z,12.04
2023-04-22T23:44:09.899Z,12.11
2023-04-22T23:46:38.594Z,12.13
2023-04-22T23:49:07.485Z,12.32
2023-04-22T23:51:35.437Z,12.25
2023-04-22T23:54:03.627Z,12.22
2023-04-22T23:56:32.480Z,12.09
2023-04-22T23:59:00.858Z,12.07
